createdAt,value
2018-07-24T00:01:26.980Z,96995.20
2018-07-24T00:03:54.099Z,96993.70
2018-07-24T00:06:21.303Z,97001.95
2018-07-24T00:08:48.447Z,96996.61
2018-07-24T00:11:15.532Z,96999.64
2018-07-24T00:13:42.842Z,96999.27
2018-07-24T00:16:10.007Z,97000.38
2018-07-24T00:18:37.179Z,97005.17
2018-07-24T00:21:04.319Z,97004.53
2018-07-24T00:23:31.416Z,96995.44
2018-07-24T00:25:58.588Z,96997.56
2018-07-24T00:28:33.087Z,96996.34
2018-07-24T00:31:00.187Z,97000.13
2018-07-24T00:33:27.355Z,96994.45
2018-07-24T00:35:54.544Z,96993.27
2018-07-24T00:38:21.668Z,96989.22
2018-07-24T00:40:48.787Z,96986.98
2018-07-24T00:43:15.925Z,96985.09
2018-07-24T00:45:43.056Z,96987.75
2018-07-24T00:48:10.192Z,96985.33
2018-07-24T00:50:37.335Z,96989.91
2018-07-24T00:53:04.474Z,96988.33
2018-07-24T00:55:31.644Z,96989.55
2018-07-24T00:57:58.775Z,96985.28
2018-07-24T01:00:25.939Z,96985.19
2018-07-24T01:02:53.087Z,96982.31
2018-07-24T01:05:20.175Z,96979.30
2018-07-24T01:07:47.285Z,96978.80
2018-07-24T01:10:14.412Z,96983.17
2018-07-24T01:12:41.600Z,96977.02
2018-07-24T01:15:08.717Z,96976.39
2018-07-24T01:17:35.907Z,96979.11
2018-07-24T01:20:03.899Z,96978.47
2018-07-24T01:22:31.043Z,96981.21
2018-07-24T01:24:58.255Z,96975.06
2018-07-24T01:27:25.398Z,96973.28
2018-07-24T01:29:52.679Z,96970.31
2018-07-24T01:32:19.836Z,96978.98
2018-07-24T01:34:46.987Z,96971.89
2018-07-24T01:37:14.117Z,96970.20
2018-07-24T01:39:41.276Z,96969.06
2018-07-24T01:42:08.441Z,96969.63
2018-07-24T01:44:35.581Z,96973.22
2018-07-24T01:47:03.176Z,96975.27
2018-07-24T01:49:30.308Z,96969.08
2018-07-24T01:51:57.533Z,96965.28
2018-07-24T01:54:24.778Z,96970.33
2018-07-24T01:56:51.929Z,96960.98
2018-07-24T01:59:19.071Z,96965.70
2018-07-24T02:01:46.221Z,96965.98
2018-07-24T02:04:13.369Z,96966.60
2018-07-24T02:06:40.569Z,96972.63
2018-07-24T02:09:08.861Z,96969.38
2018-07-24T02:11:36.048Z,96964.25
2018-07-24T02:14:03.256Z,96967.67
2018-07-24T02:16:30.401Z,96962.88
2018-07-24T02:18:57.569Z,96970.13
2018-07-24T02:21:24.748Z,96973.91
2018-07-24T02:23:51.896Z,96967.22
2018-07-24T02:26:19.072Z,96966.91
2018-07-24T02:28:46.242Z,96960.84
2018-07-24T02:31:13.406Z,96965.33
2018-07-24T02:33:40.546Z,96968.56
2018-07-24T02:36:07.659Z,96967.59
2018-07-24T02:38:34.765Z,96972.67
2018-07-24T02:41:01.996Z,96972.08
2018-07-24T02:43:29.140Z,96968.51
2018-07-24T02:45:56.234Z,96970.75
2018-07-24T02:48:23.352Z,96968.63
2018-07-24T02:50:50.508Z,96969.41
2018-07-24T02:53:17.652Z,96960.42
2018-07-24T02:55:44.817Z,96963.16
2018-07-24T02:58:11.976Z,96968.63
2018-07-24T03:00:39.133Z,96970.81
2018-07-24T03:03:06.405Z,96970.18
2018-07-24T03:05:40.437Z,96967.66
2018-07-24T03:08:07.596Z,96970.62
2018-07-24T03:10:34.757Z,96971.81
2018-07-24T03:13:02.030Z,96964.00
2018-07-24T03:15:29.108Z,96968.72
2018-07-24T03:17:56.228Z,96966.58
2018-07-24T03:20:23.357Z,96967.22
2018-07-24T03:22:50.488Z,96967.30
2018-07-24T03:25:17.577Z,96961.96
2018-07-24T03:27:44.718Z,96961.89
2018-07-24T03:30:11.885Z,96967.45
2018-07-24T03:32:39.040Z,96965.08
2018-07-24T03:35:06.204Z,96967.52
2018-07-24T03:37:33.333Z,96970.61
2018-07-24T03:40:00.441Z,96962.11
2018-07-24T03:42:27.556Z,96962.81
2018-07-24T03:44:54.737Z,96961.55
2018-07-24T03:47:21.898Z,96964.44
2018-07-24T03:49:49.084Z,96961.50
2018-07-24T03:52:16.220Z,96964.28
2018-07-24T03:54:43.882Z,96959.53
2018-07-24T03:57:11.064Z,96955.13
2018-07-24T03:59:38.191Z,96955.38
2018-07-24T04:02:05.441Z,96958.57
2018-07-24T04:07:06.591Z,96962.43
2018-07-24T04:09:33.721Z,96963.10
2018-07-24T04:12:00.848Z,96965.96
2018-07-24T04:14:27.992Z,96969.02
2018-07-24T04:16:55.212Z,96966.65
2018-07-24T04:19:22.382Z,96970.04
2018-07-24T04:21:49.829Z,96968.23
2018-07-24T04:24:16.945Z,96967.27
2018-07-24T04:26:44.057Z,96970.42
2018-07-24T04:29:11.206Z,96972.48
2018-07-24T04:31:38.348Z,96974.25
2018-07-24T04:34:05.589Z,96966.92
2018-07-24T04:36:32.721Z,96966.78
2018-07-24T04:38:59.809Z,96965.09
2018-07-24T04:41:26.907Z,96972.63
2018-07-24T04:43:54.055Z,96969.15
2018-07-24T04:46:21.151Z,96969.03
2018-07-24T04:48:48.304Z,96963.41
2018-07-24T04:51:15.531Z,96964.29
2018-07-24T04:53:42.824Z,96967.26
2018-07-24T04:56:09.980Z,96960.20
2018-07-24T04:58:37.107Z,96970.42
2018-07-24T05:01:04.209Z,96960.66
2018-07-24T05:03:31.376Z,96965.11
2018-07-24T05:05:58.553Z,96966.62
2018-07-24T05:08:25.724Z,96969.91
2018-07-24T05:10:52.866Z,96972.92
2018-07-24T05:13:20.024Z,96968.30
2018-07-24T05:15:47.116Z,96968.02
2018-07-24T05:18:14.285Z,96974.26
2018-07-24T05:20:41.496Z,96966.39
2018-07-24T05:23:08.657Z,96970.39
2018-07-24T05:25:35.801Z,96961.24
2018-07-24T05:28:02.891Z,96974.07
2018-07-24T05:30:30.022Z,96965.48
2018-07-24T05:32:57.168Z,96977.34
2018-07-24T05:35:24.358Z,96976.60
2018-07-24T05:37:51.497Z,96977.06
2018-07-24T05:40:18.616Z,96985.40
2018-07-24T05:42:45.732Z,96980.70
2018-07-24T05:45:12.876Z,96979.30
2018-07-24T05:47:40.050Z,96976.13
2018-07-24T05:50:07.457Z,96975.89
2018-07-24T05:52:34.627Z,96976.42
2018-07-24T05:55:02.609Z,96982.81
2018-07-24T05:57:29.729Z,96984.19
2018-07-24T05:59:56.929Z,96979.66
2018-07-24T06:02:24.128Z,96984.45
2018-07-24T06:04:51.275Z,96977.71
2018-07-24T06:07:18.487Z,96977.52
2018-07-24T06:09:46.013Z,96976.57
2018-07-24T06:12:13.181Z,96978.52
2018-07-24T06:14:40.349Z,96985.17
2018-07-24T06:17:07.497Z,96983.25
2018-07-24T06:19:34.645Z,96983.66
2018-07-24T06:22:01.790Z,96975.45
2018-07-24T06:24:28.900Z,96973.66
2018-07-24T06:26:56.056Z,96972.16
2018-07-24T06:29:23.218Z,96970.98
2018-07-24T06:31:50.388Z,96972.36
2018-07-24T06:34:17.536Z,96972.85
2018-07-24T06:36:44.680Z,96982.69
2018-07-24T06:39:12.840Z,96971.94
2018-07-24T06:41:40.724Z,96981.56
2018-07-24T06:44:08.175Z,96984.09
2018-07-24T06:46:35.332Z,96979.30
2018-07-24T06:49:02.828Z,96980.27
2018-07-24T06:51:30.053Z,96972.53
2018-07-24T06:53:57.172Z,96968.31
2018-07-24T06:56:24.275Z,96969.20
2018-07-24T06:58:51.440Z,96975.48
2018-07-24T07:01:18.965Z,96970.37
2018-07-24T07:03:46.132Z,96973.23
2018-07-24T07:06:13.313Z,96971.47
2018-07-24T07:08:40.525Z,96975.00
2018-07-24T07:11:07.768Z,96968.86
2018-07-24T07:13:35.036Z,96968.73
2018-07-24T07:16:02.245Z,96961.58
2018-07-24T07:18:29.357Z,96966.52
2018-07-24T07:20:56.505Z,96962.78
2018-07-24T07:23:23.647Z,96965.31
2018-07-24T07:25:50.813Z,96967.10
2018-07-24T07:28:17.973Z,96962.44
2018-07-24T07:30:45.115Z,96963.81
2018-07-24T07:33:12.263Z,96958.41
2018-07-24T07:35:39.460Z,96961.88
2018-07-24T07:38:06.607Z,96963.83
2018-07-24T07:40:33.729Z,96960.53
2018-07-24T07:43:00.978Z,96958.78
2018-07-24T07:45:28.153Z,96953.55
2018-07-24T07:47:55.335Z,96950.78
2018-07-24T07:50:22.512Z,96953.38
2018-07-24T07:52:49.726Z,96942.61
2018-07-24T07:55:16.862Z,96948.79
2018-07-24T07:57:43.949Z,96944.16
2018-07-24T08:00:11.136Z,96945.58
2018-07-24T08:02:38.245Z,96941.94
2018-07-24T08:05:05.790Z,96941.19
2018-07-24T08:07:32.976Z,96941.16
2018-07-24T08:10:00.432Z,96940.76
2018-07-24T08:12:27.788Z,96939.05
2018-07-24T08:14:54.936Z,96938.11
2018-07-24T08:17:22.095Z,96933.91
2018-07-24T08:19:49.277Z,96929.82
2018-07-24T08:22:16.556Z,96933.73
2018-07-24T08:24:43.654Z,96932.95
2018-07-24T08:29:50.377Z,96935.24
2018-07-24T08:32:17.593Z,96929.06
2018-07-24T08:34:44.728Z,96930.77
2018-07-24T08:37:11.843Z,96927.15
2018-07-24T08:39:39.095Z,96934.88
2018-07-24T08:42:06.253Z,96923.83
2018-07-24T08:44:33.388Z,96924.91
2018-07-24T08:47:00.533Z,96925.00
2018-07-24T08:49:27.712Z,96921.09
2018-07-24T08:51:54.892Z,96924.31
2018-07-24T08:54:22.261Z,96922.09
2018-07-24T08:56:49.245Z,96920.02
2018-07-24T08:59:16.379Z,96916.35
2018-07-24T09:01:43.542Z,96916.70
2018-07-24T09:04:10.741Z,96912.82
2018-07-24T09:06:37.875Z,96913.73
2018-07-24T09:09:07.454Z,96911.30
2018-07-24T09:11:34.622Z,96910.89
2018-07-24T09:14:01.722Z,96908.41
2018-07-24T09:16:28.856Z,96902.28
2018-07-24T09:18:55.969Z,96905.98
2018-07-24T09:21:23.173Z,96897.33
2018-07-24T09:23:50.320Z,96902.61
2018-07-24T09:26:17.455Z,96900.20
2018-07-24T09:28:44.616Z,96899.16
2018-07-24T09:31:11.805Z,96900.36
2018-07-24T09:33:38.924Z,96889.30
2018-07-24T09:36:06.084Z,96893.25
2018-07-24T09:38:33.236Z,96891.47
2018-07-24T09:41:00.402Z,96892.34
2018-07-24T09:43:27.570Z,96884.96
2018-07-24T09:45:54.776Z,96885.34
2018-07-24T09:48:21.923Z,96875.09
2018-07-24T09:50:49.077Z,96880.19
2018-07-24T09:53:16.211Z,96876.00
2018-07-24T09:55:43.352Z,96873.20
2018-07-24T09:58:10.528Z,96868.41
2018-07-24T10:00:43.389Z,96880.05
2018-07-24T10:03:10.533Z,96871.89
2018-07-24T10:05:37.663Z,96871.88
2018-07-24T10:08:04.872Z,96869.27
2018-07-24T10:10:32.152Z,96869.55
2018-07-24T10:12:59.353Z,96865.62
2018-07-24T10:15:26.504Z,96865.98
2018-07-24T10:17:53.705Z,96861.91
2018-07-24T10:20:20.868Z,96856.32
2018-07-24T10:22:47.957Z,96857.80
2018-07-24T10:25:15.105Z,96857.99
2018-07-24T10:27:42.265Z,96857.27
2018-07-24T10:30:09.438Z,96850.98
2018-07-24T10:32:36.909Z,96851.91
2018-07-24T10:35:05.027Z,96850.16
2018-07-24T10:37:32.165Z,96838.17
2018-07-24T10:39:59.347Z,96846.45
2018-07-24T10:42:26.527Z,96837.69
2018-07-24T10:44:53.719Z,96838.82
2018-07-24T10:47:20.861Z,96836.85
2018-07-24T10:49:47.989Z,96838.17
2018-07-24T10:52:15.192Z,96826.88
2018-07-24T10:54:42.506Z,96827.11
2018-07-24T10:57:09.665Z,96819.93
2018-07-24T10:59:36.848Z,96822.70
2018-07-24T11:02:04.112Z,96822.11
2018-07-24T11:04:31.233Z,96816.53
2018-07-24T11:06:58.367Z,96813.05
2018-07-24T11:09:25.537Z,96815.06
2018-07-24T11:11:52.671Z,96815.39
2018-07-24T11:14:19.808Z,96820.67
2018-07-24T11:16:46.993Z,96811.52
2018-07-24T11:19:14.147Z,96805.80
2018-07-24T11:21:41.254Z,96800.55
2018-07-24T11:24:08.428Z,96798.45
2018-07-24T11:26:35.554Z,96796.71
2018-07-24T11:29:02.723Z,96794.80
2018-07-24T11:31:29.923Z,96795.34
2018-07-24T11:33:57.100Z,96790.19
2018-07-24T11:36:24.366Z,96787.88
2018-07-24T11:38:51.696Z,96789.27
2018-07-24T11:41:18.821Z,96788.28
2018-07-24T11:43:45.983Z,96785.73
2018-07-24T11:46:13.108Z,96780.62
2018-07-24T11:48:40.264Z,96773.95
2018-07-24T11:51:07.694Z,96771.70
2018-07-24T11:53:34.869Z,96768.22
2018-07-24T11:56:01.998Z,96765.52
2018-07-24T11:58:29.168Z,96765.33
2018-07-24T12:00:56.329Z,96765.13
2018-07-24T12:03:23.493Z,96770.31
2018-07-24T12:05:50.707Z,96757.84
2018-07-24T12:08:17.841Z,96752.54
2018-07-24T12:10:44.972Z,96753.30
2018-07-24T12:13:12.078Z,96751.17
2018-07-24T12:15:39.273Z,96749.33
2018-07-24T12:18:06.446Z,96750.69
2018-07-24T12:20:33.577Z,96750.63
2018-07-24T12:23:00.794Z,96749.41
2018-07-24T12:25:27.919Z,96751.89
2018-07-24T12:27:55.101Z,96745.59
2018-07-24T12:30:22.237Z,96742.81
2018-07-24T12:32:49.364Z,96744.72
2018-07-24T12:35:16.534Z,96737.11
2018-07-24T12:37:43.657Z,96738.59
2018-07-24T12:40:10.827Z,96736.30
2018-07-24T12:42:38.235Z,96737.17
2018-07-24T12:45:06.005Z,96732.50
2018-07-24T12:47:33.464Z,96735.41
2018-07-24T12:50:00.613Z,96733.08
2018-07-24T12:52:27.839Z,96724.05
2018-07-24T12:54:54.929Z,96722.77
2018-07-24T12:57:23.003Z,96722.15
2018-07-24T12:59:50.153Z,96724.72
2018-07-24T13:02:17.383Z,96723.83
2018-07-24T13:04:44.506Z,96726.30
2018-07-24T13:07:11.724Z,96714.73
2018-07-24T13:09:38.903Z,96719.88
2018-07-24T13:12:06.133Z,96719.88
2018-07-24T13:14:33.310Z,96713.87
2018-07-24T13:17:00.452Z,96714.43
2018-07-24T13:19:27.604Z,96715.37
2018-07-24T13:21:54.728Z,96712.09
2018-07-24T13:24:21.899Z,96711.03
2018-07-24T13:26:49.049Z,96711.61
2018-07-24T13:29:16.146Z,96709.19
2018-07-24T13:31:43.386Z,96702.50
2018-07-24T13:34:10.504Z,96705.17
2018-07-24T13:36:37.664Z,96694.52
2018-07-24T13:39:07.524Z,96704.48
2018-07-24T13:41:34.756Z,96697.14
2018-07-24T13:44:01.941Z,96696.79
2018-07-24T13:46:29.101Z,96681.86
2018-07-24T13:48:56.263Z,96692.17
2018-07-24T13:51:23.431Z,96687.92
2018-07-24T13:53:50.618Z,96683.58
2018-07-24T13:56:17.780Z,96684.84
2018-07-24T13:58:44.946Z,96682.57
2018-07-24T14:01:12.088Z,96681.80
2018-07-24T14:03:39.223Z,96684.19
2018-07-24T14:06:06.364Z,96684.70
2018-07-24T14:08:33.637Z,96678.04
2018-07-24T14:11:00.749Z,96675.19
2018-07-24T14:13:27.896Z,96669.63
2018-07-24T14:15:55.098Z,96667.95
2018-07-24T14:18:22.181Z,96667.27
2018-07-24T14:20:49.336Z,96656.26
2018-07-24T14:23:16.508Z,96653.60
2018-07-24T14:25:43.733Z,96653.53
2018-07-24T14:28:10.901Z,96658.11
2018-07-24T14:30:38.712Z,96653.27
2018-07-24T14:33:05.908Z,96649.82
2018-07-24T14:35:33.219Z,96644.54
2018-07-24T14:38:01.479Z,96648.56
2018-07-24T14:40:28.682Z,96643.84
2018-07-24T14:42:56.421Z,96647.16
2018-07-24T14:45:23.600Z,96647.05
2018-07-24T14:47:50.749Z,96640.90
2018-07-24T14:50:17.921Z,96639.00
2018-07-24T14:52:45.152Z,96642.09
2018-07-24T14:55:12.412Z,96639.77
2018-07-24T14:57:39.549Z,96638.89
2018-07-24T15:00:07.699Z,96631.38
2018-07-24T15:02:34.903Z,96635.48
2018-07-24T15:05:02.625Z,96632.31
2018-07-24T15:07:29.779Z,96637.14
2018-07-24T15:09:56.986Z,96629.15
2018-07-24T15:12:24.123Z,96629.48
2018-07-24T15:14:51.428Z,96625.37
2018-07-24T15:17:18.609Z,96623.39
2018-07-24T15:19:45.795Z,96624.01
2018-07-24T15:22:12.952Z,96622.87
2018-07-24T15:24:40.061Z,96616.11
2018-07-24T15:27:07.229Z,96612.23
2018-07-24T15:29:34.451Z,96616.23
2018-07-24T15:32:01.618Z,96613.48
2018-07-24T15:34:28.820Z,96612.70
2018-07-24T15:36:55.948Z,96609.81
2018-07-24T15:39:23.246Z,96606.80
2018-07-24T15:41:50.445Z,96609.03
2018-07-24T15:44:17.673Z,96610.20
2018-07-24T15:46:44.930Z,96602.22
2018-07-24T15:49:12.052Z,96601.86
2018-07-24T15:51:39.324Z,96600.28
2018-07-24T15:54:06.485Z,96600.13
2018-07-24T15:56:33.669Z,96600.52
2018-07-24T15:59:00.813Z,96599.90
2018-07-24T16:01:27.980Z,96602.95
2018-07-24T16:03:55.160Z,96596.88
2018-07-24T16:06:22.377Z,96593.97
2018-07-24T16:08:49.533Z,96595.31
2018-07-24T16:11:16.672Z,96601.30
2018-07-24T16:13:43.805Z,96595.52
2018-07-24T16:16:10.977Z,96596.56
2018-07-24T16:18:38.105Z,96596.34
2018-07-24T16:21:05.311Z,96597.32
2018-07-24T16:23:32.500Z,96597.09
2018-07-24T16:25:59.692Z,96593.45
2018-07-24T16:28:26.855Z,96596.78
2018-07-24T16:30:53.976Z,96596.75
2018-07-24T16:33:21.142Z,96602.30
2018-07-24T16:35:48.337Z,96594.72
2018-07-24T16:38:15.522Z,96598.08
2018-07-24T16:40:42.620Z,96590.17
2018-07-24T16:43:09.848Z,96588.66
2018-07-24T16:45:37.025Z,96581.67
2018-07-24T16:48:04.233Z,96585.48
2018-07-24T16:50:31.475Z,96588.61
2018-07-24T16:52:58.599Z,96584.52
2018-07-24T16:55:25.712Z,96587.30
2018-07-24T16:57:52.967Z,96583.19
2018-07-24T17:00:20.140Z,96583.19
2018-07-24T17:02:47.306Z,96583.51
2018-07-24T17:05:14.460Z,96579.69
2018-07-24T17:07:41.614Z,96581.22
2018-07-24T17:10:08.862Z,96580.13
2018-07-24T17:12:36.063Z,96579.78
2018-07-24T17:15:04.796Z,96581.90
2018-07-24T17:17:31.914Z,96577.07
2018-07-24T17:19:59.095Z,96586.91
2018-07-24T17:22:26.332Z,96583.75
2018-07-24T17:24:53.432Z,96582.11
2018-07-24T17:27:20.618Z,96582.28
2018-07-24T17:29:47.733Z,96579.98
2018-07-24T17:32:14.880Z,96579.83
2018-07-24T17:34:42.018Z,96581.63
2018-07-24T17:37:09.166Z,96581.47
2018-07-24T17:39:36.316Z,96580.59
2018-07-24T17:42:03.521Z,96585.69
2018-07-24T17:44:30.657Z,96588.09
2018-07-24T17:46:57.829Z,96589.67
2018-07-24T17:49:25.033Z,96586.40
2018-07-24T17:51:52.267Z,96592.23
2018-07-24T17:54:19.440Z,96589.41
2018-07-24T17:56:46.565Z,96589.52
2018-07-24T17:59:13.697Z,96601.18
2018-07-24T18:01:40.847Z,96592.85
2018-07-24T18:04:08.004Z,96601.22
2018-07-24T18:06:35.181Z,96598.16
2018-07-24T18:09:02.941Z,96596.80
2018-07-24T18:11:30.141Z,96600.17
2018-07-24T18:13:57.298Z,96596.53
2018-07-24T18:16:24.449Z,96605.73
2018-07-24T18:18:51.605Z,96608.67
2018-07-24T18:21:18.885Z,96603.03
2018-07-24T18:23:46.129Z,96609.44
2018-07-24T18:26:13.310Z,96602.41
2018-07-24T18:28:40.457Z,96604.49
2018-07-24T18:31:07.636Z,96603.23
2018-07-24T18:33:34.780Z,96603.54
2018-07-24T18:36:01.964Z,96604.16
2018-07-24T18:38:29.173Z,96603.33
2018-07-24T18:40:56.332Z,96604.43
2018-07-24T18:43:23.484Z,96610.43
2018-07-24T18:45:50.701Z,96608.45
2018-07-24T18:48:17.867Z,96604.88
2018-07-24T18:50:45.037Z,96608.27
2018-07-24T18:53:12.197Z,96610.83
2018-07-24T18:55:39.351Z,96610.97
2018-07-24T18:58:06.589Z,96615.03
2018-07-24T19:00:33.741Z,96618.96
2018-07-24T19:03:00.920Z,96617.11
2018-07-24T19:05:28.134Z,96618.78
2018-07-24T19:07:55.234Z,96620.48
2018-07-24T19:10:22.361Z,96618.48
2018-07-24T19:12:49.499Z,96624.13
2018-07-24T19:15:16.692Z,96625.27
2018-07-24T19:17:43.856Z,96628.96
2018-07-24T19:20:10.998Z,96628.47
2018-07-24T19:22:38.201Z,96631.84
2018-07-24T19:25:05.381Z,96638.42
2018-07-24T19:27:32.637Z,96641.84
2018-07-24T19:29:59.857Z,96644.23
2018-07-24T19:32:27.075Z,96642.22
2018-07-24T19:34:54.527Z,96644.35
2018-07-24T19:37:21.884Z,96649.58
2018-07-24T19:39:49.355Z,96652.40
2018-07-24T19:42:16.786Z,96654.80
2018-07-24T19:44:44.152Z,96657.11
2018-07-24T19:47:11.661Z,96655.85
2018-07-24T19:49:39.067Z,96658.80
2018-07-24T19:52:06.488Z,96659.22
2018-07-24T19:54:33.948Z,96660.98
2018-07-24T19:57:01.329Z,96658.47
2018-07-24T19:59:30.325Z,96655.42
2018-07-24T20:01:58.592Z,96657.88
2018-07-24T20:04:25.950Z,96656.53
2018-07-24T20:06:53.292Z,96657.81
2018-07-24T20:09:21.282Z,96653.30
2018-07-24T20:11:48.586Z,96659.33
2018-07-24T20:14:15.854Z,96657.63
2018-07-24T20:16:43.104Z,96658.48
2018-07-24T20:19:10.393Z,96663.48
2018-07-24T20:21:37.772Z,96658.81
2018-07-24T20:24:06.015Z,96664.81
2018-07-24T20:26:33.418Z,96657.67
2018-07-24T20:29:00.691Z,96665.10
2018-07-24T20:31:28.188Z,96664.34
2018-07-24T20:33:55.469Z,96666.09
2018-07-24T20:36:22.728Z,96659.81
2018-07-24T20:38:49.949Z,96666.05
2018-07-24T20:41:17.427Z,96655.04
2018-07-24T20:43:44.621Z,96655.05
2018-07-24T20:46:11.894Z,96661.82
2018-07-24T20:48:39.235Z,96664.61
2018-07-24T20:51:06.605Z,96668.66
2018-07-24T20:53:33.880Z,96666.89
2018-07-24T20:56:01.039Z,96674.97
2018-07-24T20:58:28.209Z,96678.81
2018-07-24T21:00:55.429Z,96674.50
2018-07-24T21:03:22.701Z,96680.62
2018-07-24T21:05:49.922Z,96678.59
2018-07-24T21:08:17.085Z,96673.16
2018-07-24T21:10:44.257Z,96673.36
2018-07-24T21:13:11.437Z,96676.03
2018-07-24T21:15:38.642Z,96678.58
2018-07-24T21:18:05.875Z,96675.45
2018-07-24T21:20:33.101Z,96673.09
2018-07-24T21:23:00.829Z,96681.32
2018-07-24T21:25:28.022Z,96669.91
2018-07-24T21:27:55.231Z,96686.73
2018-07-24T21:30:22.444Z,96686.11
2018-07-24T21:32:49.672Z,96694.32
2018-07-24T21:35:16.943Z,96694.05
2018-07-24T21:37:44.152Z,96686.95
2018-07-24T21:40:11.272Z,96693.98
2018-07-24T21:42:38.577Z,96692.98
2018-07-24T21:45:05.732Z,96694.16
2018-07-24T21:47:32.936Z,96692.18
2018-07-24T21:50:00.072Z,96697.53
2018-07-24T21:52:27.326Z,96704.12
2018-07-24T21:54:54.407Z,96701.41
2018-07-24T21:57:21.552Z,96703.11
2018-07-24T21:59:48.766Z,96703.29
2018-07-24T22:02:15.957Z,96701.83
2018-07-24T22:04:43.106Z,96703.42
2018-07-24T22:07:10.285Z,96709.22
2018-07-24T22:09:37.512Z,96706.27
2018-07-24T22:12:04.676Z,96706.69
2018-07-24T22:14:31.846Z,96701.02
2018-07-24T22:16:59.000Z,96705.08
2018-07-24T22:19:26.183Z,96705.50
2018-07-24T22:21:53.364Z,96712.26
2018-07-24T22:24:20.545Z,96710.78
2018-07-24T22:26:47.728Z,96711.70
2018-07-24T22:29:14.901Z,96709.73
2018-07-24T22:31:42.065Z,96717.55
2018-07-24T22:34:09.209Z,96716.77
2018-07-24T22:36:36.425Z,96716.54
2018-07-24T22:39:06.868Z,96719.72
2018-07-24T22:41:34.017Z,96718.94
2018-07-24T22:44:01.117Z,96729.13
2018-07-24T22:46:28.261Z,96718.63
2018-07-24T22:48:55.426Z,96720.48
2018-07-24T22:51:22.566Z,96719.04
2018-07-24T22:53:49.724Z,96719.39
2018-07-24T22:56:16.905Z,96721.45
2018-07-24T22:58:44.080Z,96723.51
2018-07-24T23:01:11.226Z,96726.53
2018-07-24T23:03:38.360Z,96730.38
2018-07-24T23:06:05.556Z,96728.55
2018-07-24T23:08:32.681Z,96732.88
2018-07-24T23:10:59.863Z,96731.59
2018-07-24T23:13:26.972Z,96731.24
2018-07-24T23:15:54.110Z,96732.06
2018-07-24T23:18:21.197Z,96733.83
2018-07-24T23:20:48.325Z,96729.69
2018-07-24T23:23:15.433Z,96737.25
2018-07-24T23:25:42.588Z,96733.27
2018-07-24T23:28:09.733Z,96738.56
2018-07-24T23:30:36.904Z,96729.66
2018-07-24T23:33:04.097Z,96734.50
2018-07-24T23:35:31.448Z,96736.55
2018-07-24T23:37:58.564Z,96732.47
2018-07-24T23:40:25.712Z,96731.48
2018-07-24T23:42:52.910Z,96729.73
2018-07-24T23:45:20.056Z,96728.00
2018-07-24T23:47:47.192Z,96735.48
2018-07-24T23:50:14.341Z,96731.64
2018-07-24T23:52:41.481Z,96730.48
2018-07-24T23:55:08.661Z,96720.73
2018-07-24T23:57:35.824Z,96719.19
